createdAt,value
2023-06-17T00:01:32.622Z,100251.91
2023-06-17T00:06:35.225Z,100242.88
2023-06-17T00:11:37.857Z,100237.72
2023-06-17T00:16:45.080Z,100224.63
2023-06-17T00:21:53.964Z,100233.34
2023-06-17T00:26:56.316Z,100223.28
2023-06-17T00:31:58.900Z,100223.28
2023-06-17T00:37:01.360Z,100225.47
2023-06-17T00:42:03.796Z,100221.50
2023-06-17T00:47:07.030Z,100212.34
2023-06-17T00:52:30.898Z,100217.75
2023-06-17T00:57:34.525Z,100220.94
2023-06-17T01:02:41.439Z,100209.44
2023-06-17T01:08:01.227Z,100216.44
2023-06-17T01:13:05.130Z,100218.78
2023-06-17T01:18:08.959Z,100211.47
2023-06-17T01:23:12.371Z,100215.03
2023-06-17T01:28:20.689Z,100214.72
2023-06-17T01:33:23.771Z,100209.97
2023-06-17T01:38:47.671Z,100222.16
2023-06-17T01:43:51.282Z,100218.19
2023-06-17T01:48:55.059Z,100223.88
2023-06-17T01:53:58.244Z,100219.41
2023-06-17T01:59:00.705Z,100223.91
2023-06-17T02:04:03.227Z,100221.78
2023-06-17T02:09:07.202Z,100227.28
2023-06-17T02:14:09.635Z,100222.09
2023-06-17T02:19:13.590Z,100222.09
2023-06-17T02:24:16.253Z,100233.00
2023-06-17T02:29:18.909Z,100220.91
2023-06-17T02:34:21.298Z,100230.19
2023-06-17T02:39:24.293Z,100239.31
2023-06-17T02:44:26.767Z,100242.59
2023-06-17T02:49:29.391Z,100239.72
2023-06-17T02:54:32.013Z,100241.41
2023-06-17T02:59:38.704Z,100243.47
2023-06-17T03:04:42.231Z,100242.53
2023-06-17T03:09:44.780Z,100244.38
2023-06-17T03:14:48.968Z,100241.00
2023-06-17T03:19:53.712Z,100236.28
2023-06-17T03:24:56.302Z,100250.31
2023-06-17T03:30:00.323Z,100242.22
2023-06-17T03:35:03.524Z,100249.59
2023-06-17T03:40:08.387Z,100251.66
2023-06-17T03:45:12.485Z,100260.03
2023-06-17T03:50:15.420Z,100249.78
2023-06-17T03:55:18.277Z,100257.06
2023-06-17T04:00:21.373Z,100248.81
2023-06-17T04:05:32.612Z,100255.13
2023-06-17T04:10:36.304Z,100251.25
2023-06-17T04:15:38.654Z,100255.94
2023-06-17T04:20:41.497Z,100248.19
2023-06-17T04:25:44.786Z,100247.34
2023-06-17T04:30:47.479Z,100245.41
2023-06-17T04:35:51.224Z,100237.34
2023-06-17T04:40:54.271Z,100229.91
2023-06-17T04:45:59.446Z,100223.41
2023-06-17T04:51:02.512Z,100225.69
2023-06-17T04:56:05.969Z,100225.50
2023-06-17T05:01:12.075Z,100229.91
2023-06-17T05:06:15.474Z,100224.38
2023-06-17T05:11:18.077Z,100213.19
2023-06-17T05:16:21.674Z,100201.69
2023-06-17T05:21:24.723Z,100187.91
2023-06-17T05:26:30.702Z,100181.59
2023-06-17T05:31:33.426Z,100183.38
2023-06-17T05:36:37.032Z,100179.44
2023-06-17T05:41:39.683Z,100190.84
2023-06-17T05:46:43.661Z,100188.88
2023-06-17T05:51:46.217Z,100184.19
2023-06-17T05:56:51.128Z,100192.75
2023-06-17T06:01:55.719Z,100198.28
2023-06-17T06:06:58.667Z,100213.84
2023-06-17T06:12:01.342Z,100217.16
2023-06-17T06:17:04.874Z,100223.13
2023-06-17T06:22:07.369Z,100212.44
2023-06-17T06:27:10.211Z,100223.59
2023-06-17T06:32:13.989Z,100213.66
2023-06-17T06:37:17.558Z,100216.50
2023-06-17T06:42:20.538Z,100214.34
2023-06-17T06:47:29.840Z,100223.00
2023-06-17T06:52:33.054Z,100214.91
2023-06-17T06:57:36.085Z,100221.31
2023-06-17T07:02:38.812Z,100218.44
2023-06-17T07:07:41.911Z,100210.44
2023-06-17T07:12:44.557Z,100214.94
2023-06-17T07:17:48.203Z,100225.25
2023-06-17T07:22:51.064Z,100223.28
2023-06-17T07:28:01.183Z,100217.03
2023-06-17T07:33:05.066Z,100225.31
2023-06-17T07:38:09.350Z,100212.03
2023-06-17T07:43:12.850Z,100213.59
2023-06-17T07:48:15.480Z,100223.81
2023-06-17T07:53:17.877Z,100222.53
2023-06-17T07:58:20.872Z,100217.09
2023-06-17T08:03:23.573Z,100213.97
2023-06-17T08:08:26.136Z,100218.91
2023-06-17T08:13:28.545Z,100220.38
2023-06-17T08:18:31.023Z,100208.25
2023-06-17T08:23:33.668Z,100210.28
2023-06-17T08:28:36.271Z,100227.03
2023-06-17T08:33:38.785Z,100227.13
2023-06-17T08:38:41.361Z,100235.84
2023-06-17T08:43:44.704Z,100223.16
2023-06-17T08:48:47.891Z,100227.00
2023-06-17T08:53:52.009Z,100234.94
2023-06-17T08:58:56.003Z,100233.72
2023-06-17T09:03:58.576Z,100234.19
2023-06-17T09:09:01.085Z,100224.31
2023-06-17T09:14:03.918Z,100225.56
2023-06-17T09:19:10.405Z,100237.19
2023-06-17T09:24:13.156Z,100231.75
2023-06-17T09:29:16.088Z,100227.81
2023-06-17T09:34:19.116Z,100232.16
2023-06-17T09:39:30.867Z,100230.25
2023-06-17T09:44:33.322Z,100237.56
2023-06-17T09:49:37.222Z,100235.84
2023-06-17T09:54:42.521Z,100238.13
2023-06-17T09:59:45.304Z,100235.78
2023-06-17T10:04:47.753Z,100239.94
2023-06-17T10:09:50.254Z,100219.38
2023-06-17T10:14:52.926Z,100226.16
2023-06-17T10:19:55.802Z,100226.25
2023-06-17T10:24:58.271Z,100218.78
2023-06-17T10:30:00.717Z,100209.06
2023-06-17T10:35:10.956Z,100219.13
2023-06-17T10:40:31.364Z,100217.78
2023-06-17T10:45:36.455Z,100209.97
2023-06-17T10:50:39.022Z,100207.78
2023-06-17T10:55:41.676Z,100204.66
2023-06-17T11:00:44.136Z,100205.66
2023-06-17T11:05:49.000Z,100212.59
2023-06-17T11:10:51.313Z,100211.75
2023-06-17T11:15:57.013Z,100209.94
2023-06-17T11:20:59.483Z,100219.28
2023-06-17T11:26:02.564Z,100223.91
2023-06-17T11:31:05.130Z,100212.63
2023-06-17T11:36:11.170Z,100215.13
2023-06-17T11:41:13.814Z,100219.59
2023-06-17T11:46:23.460Z,100213.53
2023-06-17T11:51:25.904Z,100207.91
2023-06-17T11:56:28.315Z,100205.94
2023-06-17T12:01:30.705Z,100198.63
2023-06-17T12:06:33.793Z,100194.63
2023-06-17T12:11:39.780Z,100193.06
2023-06-17T12:16:42.606Z,100201.56
2023-06-17T12:21:44.992Z,100206.41
2023-06-17T12:26:47.578Z,100200.19
2023-06-17T12:31:50.050Z,100196.38
2023-06-17T12:36:52.774Z,100190.84
2023-06-17T12:41:55.292Z,100187.97
2023-06-17T12:46:57.692Z,100189.00
2023-06-17T12:52:00.159Z,100171.41
2023-06-17T12:57:02.647Z,100170.19
2023-06-17T13:02:05.402Z,100176.25
2023-06-17T13:07:07.760Z,100178.91
2023-06-17T13:12:10.559Z,100170.59
2023-06-17T13:17:13.310Z,100169.81
2023-06-17T13:22:15.812Z,100170.63
2023-06-17T13:27:20.054Z,100172.03
2023-06-17T13:32:22.586Z,100172.63
2023-06-17T13:37:25.101Z,100175.69
2023-06-17T13:42:27.539Z,100177.75
2023-06-17T13:47:30.372Z,100173.09
2023-06-17T13:52:32.982Z,100179.63
2023-06-17T13:57:35.478Z,100183.06
2023-06-17T14:02:37.962Z,100178.78
2023-06-17T14:07:40.735Z,100180.91
2023-06-17T14:12:43.262Z,100173.75
2023-06-17T14:17:46.254Z,100164.78
2023-06-17T14:22:50.777Z,100171.03
2023-06-17T14:27:53.665Z,100172.13
2023-06-17T14:32:56.250Z,100172.56
2023-06-17T14:37:58.797Z,100167.50
2023-06-17T14:43:01.657Z,100164.88
2023-06-17T14:48:04.475Z,100182.03
2023-06-17T14:53:07.018Z,100180.94
2023-06-17T14:58:09.672Z,100172.38
2023-06-17T15:03:12.377Z,100188.69
2023-06-17T15:08:14.993Z,100199.88
2023-06-17T15:13:17.493Z,100202.81
2023-06-17T15:18:19.943Z,100214.59
2023-06-17T15:23:22.605Z,100217.06
2023-06-17T15:28:25.102Z,100235.69
2023-06-17T15:33:27.480Z,100236.69
2023-06-17T15:38:29.928Z,100241.41
2023-06-17T15:43:32.386Z,100238.78
2023-06-17T15:48:35.662Z,100229.91
2023-06-17T15:53:38.137Z,100219.25
2023-06-17T15:58:40.817Z,100233.16
2023-06-17T16:03:43.494Z,100216.47
2023-06-17T16:08:46.628Z,100221.03
2023-06-17T16:13:49.214Z,100240.44
2023-06-17T16:18:51.765Z,100238.94
2023-06-17T16:23:54.220Z,100231.47
2023-06-17T16:28:56.654Z,100237.06
2023-06-17T16:33:59.092Z,100240.84
2023-06-17T16:39:01.824Z,100235.19
2023-06-17T16:44:04.547Z,100219.75
2023-06-17T16:49:07.099Z,100227.97
2023-06-17T16:54:09.704Z,100221.91
2023-06-17T16:59:12.258Z,100217.97
2023-06-17T17:04:15.067Z,100204.47
2023-06-17T17:09:17.622Z,100211.31
2023-06-17T17:14:20.403Z,100200.13
2023-06-17T17:19:23.347Z,100192.03
2023-06-17T17:24:25.796Z,100192.50
2023-06-17T17:29:28.428Z,100200.75
2023-06-17T17:34:30.900Z,100194.13
2023-06-17T17:39:33.372Z,100191.09
2023-06-17T17:44:35.750Z,100202.75
2023-06-17T17:49:38.398Z,100203.03
2023-06-17T17:54:53.168Z,100200.69
2023-06-17T18:00:03.869Z,100200.22
2023-06-17T18:05:13.925Z,100206.72
2023-06-17T18:10:16.321Z,100213.38
2023-06-17T18:15:18.858Z,100209.56
2023-06-17T18:20:21.554Z,100212.56
2023-06-17T18:25:24.280Z,100207.03
2023-06-17T18:30:26.795Z,100211.88
2023-06-17T18:35:29.193Z,100220.69
2023-06-17T18:40:31.645Z,100230.19
2023-06-17T18:45:34.070Z,100229.44
2023-06-17T18:50:37.368Z,100220.41
2023-06-17T18:55:40.369Z,100229.59
2023-06-17T19:00:42.974Z,100230.25
2023-06-17T19:05:45.684Z,100234.16
2023-06-17T19:10:48.059Z,100250.38
2023-06-17T19:15:50.558Z,100246.34
2023-06-17T19:20:52.932Z,100251.38
2023-06-17T19:25:55.575Z,100271.09
2023-06-17T19:30:57.965Z,100267.34
2023-06-17T19:36:00.342Z,100267.75
2023-06-17T19:41:04.788Z,100273.25
2023-06-17T19:46:09.331Z,100283.66
2023-06-17T19:51:11.989Z,100281.22
2023-06-17T19:56:14.349Z,100264.19
2023-06-17T20:01:16.909Z,100282.31
2023-06-17T20:06:19.419Z,100284.44
2023-06-17T20:11:26.964Z,100294.59
2023-06-17T20:16:29.247Z,100299.25
2023-06-17T20:21:31.602Z,100290.00
2023-06-17T20:26:34.052Z,100293.25
2023-06-17T20:31:36.531Z,100296.72
2023-06-17T20:36:39.137Z,100297.50
2023-06-17T20:41:41.531Z,100286.91
2023-06-17T20:46:44.048Z,100296.34
2023-06-17T20:51:46.568Z,100298.63
2023-06-17T20:56:49.071Z,100295.81
2023-06-17T21:01:51.976Z,100297.66
2023-06-17T21:06:54.448Z,100299.91
2023-06-17T21:11:57.438Z,100298.25
2023-06-17T21:17:00.203Z,100298.66
2023-06-17T21:22:02.916Z,100290.25
2023-06-17T21:27:10.523Z,100306.75
2023-06-17T21:32:13.660Z,100308.81
2023-06-17T21:37:16.228Z,100312.72
2023-06-17T21:42:18.698Z,100312.41
2023-06-17T21:47:21.149Z,100320.63
2023-06-17T21:52:23.563Z,100316.56
2023-06-17T21:57:27.618Z,100314.13
2023-06-17T22:02:30.119Z,100317.28
2023-06-17T22:07:32.805Z,100302.72
2023-06-17T22:12:35.508Z,100304.16
2023-06-17T22:17:38.165Z,100306.19
2023-06-17T22:22:40.750Z,100313.72
2023-06-17T22:27:43.188Z,100317.19
2023-06-17T22:32:45.765Z,100318.63
2023-06-17T22:37:48.461Z,100330.06
2023-06-17T22:42:50.924Z,100330.41
2023-06-17T22:47:53.767Z,100305.59
2023-06-17T22:52:56.247Z,100324.69
2023-06-17T22:57:58.835Z,100324.28
2023-06-17T23:03:01.277Z,100323.69
2023-06-17T23:08:04.700Z,100319.72
2023-06-17T23:13:07.171Z,100320.31
2023-06-17T23:18:10.036Z,100305.59
2023-06-17T23:23:12.608Z,100312.84
2023-06-17T23:28:19.135Z,100321.69
2023-06-17T23:33:22.498Z,100315.81
2023-06-17T23:38:25.292Z,100313.00
2023-06-17T23:43:27.980Z,100313.78
2023-06-17T23:48:30.920Z,100320.16
2023-06-17T23:53:34.828Z,100320.91
2023-06-17T23:58:37.328Z,100315.81
